Time;durP1;ratioP1;P1;durP2;ratioP2;P2;SDS_P1;SDS_P2;PMS_P1;PMS_P2;Temp;Humidity;BMP_temperature;BMP_pressure;BME280_temperature;BME280_humidity;BME280_pressure;Samples;Min_cycle;Max_cycle;Signal;HPM_P1;HPM_P2
2021/03/17 00:00:10;;;;;;;19.00;12.47;;;;;;;;;;5071071;28;20620;-74
2021/03/17 00:02:35;;;;;;;17.30;13.13;;;;;;;;;;5060993;28;20470;-74
2021/03/17 00:05:02;;;;;;;17.50;12.70;;;;;;;;;;5071850;28;20171;-74
2021/03/17 00:07:28;;;;;;;24.05;11.70;;;;;;;;;;5070799;28;20438;-74
2021/03/17 00:09:54;;;;;;;15.83;11.77;;;;;;;;;;5071424;28;20181;-74
2021/03/17 00:12:20;;;;;;;19.03;11.77;;;;;;;;;;5062000;28;20431;-75
2021/03/17 00:14:46;;;;;;;19.30;11.77;;;;;;;;;;5062065;28;20434;-74
2021/03/17 00:17:11;;;;;;;16.63;11.20;;;;;;;;;;5069478;28;20531;-74
2021/03/17 00:19:37;;;;;;;16.57;12.30;;;;;;;;;;5071210;28;20466;-74
2021/03/17 00:22:03;;;;;;;16.77;11.67;;;;;;;;;;5068920;28;20470;-74
2021/03/17 00:24:29;;;;;;;16.67;11.50;;;;;;;;;;5070982;28;20812;-74
2021/03/17 00:26:55;;;;;;;20.17;11.90;;;;;;;;;;5070466;28;20283;-74
2021/03/17 00:29:21;;;;;;;16.77;10.67;;;;;;;;;;5072103;28;21040;-74
2021/03/17 00:31:47;;;;;;;16.00;9.45;;;;;;;;;;5071372;28;20500;-74
2021/03/17 00:34:13;;;;;;;15.47;11.40;;;;;;;;;;5061349;28;20181;-74
2021/03/17 00:36:39;;;;;;;17.63;12.47;;;;;;;;;;5071607;28;20857;-74
2021/03/17 00:39:05;;;;;;;19.17;10.60;;;;;;;;;;5071031;28;20450;-74
2021/03/17 00:41:31;;;;;;;15.70;10.65;;;;;;;;;;5071161;28;20477;-74
2021/03/17 00:43:57;;;;;;;18.07;12.27;;;;;;;;;;5069530;28;20191;-74
2021/03/17 00:46:23;;;;;;;16.30;12.60;;;;;;;;;;5071353;28;20538;-73
2021/03/17 00:48:49;;;;;;;19.20;13.47;;;;;;;;;;5076298;28;20276;-74
2021/03/17 00:51:15;;;;;;;16.27;12.27;;;;;;;;;;5070655;28;20435;-74
2021/03/17 00:53:41;;;;;;;18.13;12.05;;;;;;;;;;5070422;28;20442;-74
2021/03/17 00:56:07;;;;;;;26.17;14.20;;;;;;;;;;5069874;28;20258;-74
2021/03/17 00:58:33;;;;;;;20.20;10.68;;;;;;;;;;5070728;28;20990;-74
2021/03/17 01:00:59;;;;;;;20.93;12.00;;;;;;;;;;5074228;28;20303;-74
2021/03/17 01:03:25;;;;;;;16.33;11.10;;;;;;;;;;5075089;28;20421;-73
2021/03/17 01:05:50;;;;;;;17.10;10.80;;;;;;;;;;5074655;28;20446;-74
2021/03/17 01:08:17;;;;;;;16.20;11.40;;;;;;;;;;5075440;28;20411;-74
2021/03/17 01:10:44;;;;;;;17.10;11.07;;;;;;;;;;5074347;28;20542;-74
2021/03/17 01:13:10;;;;;;;24.35;11.77;;;;;;;;;;5074273;28;20177;-74
2021/03/17 01:15:36;;;;;;;20.85;12.05;;;;;;;;;;5075039;28;20212;-74
2021/03/17 01:18:02;;;;;;;16.67;11.55;;;;;;;;;;5073542;28;20191;-74
2021/03/17 01:20:29;;;;;;;16.02;11.70;;;;;;;;;;5075043;28;20177;-74
2021/03/17 01:22:56;;;;;;;17.73;12.65;;;;;;;;;;5071373;28;20546;-73
2021/03/17 01:25:27;;;;;;;17.45;10.98;;;;;;;;;;5070852;28;20231;-74
2021/03/17 01:27:53;;;;;;;22.00;10.70;;;;;;;;;;5071681;28;20200;-74
2021/03/17 01:30:22;;;;;;;12.63;10.40;;;;;;;;;;5075243;28;20208;-74
2021/03/17 01:32:48;;;;;;;18.10;11.32;;;;;;;;;;5073725;28;20234;-74
2021/03/17 01:35:15;;;;;;;18.42;11.85;;;;;;;;;;5074967;28;20177;-73
2021/03/17 01:37:41;;;;;;;18.30;12.25;;;;;;;;;;5073892;28;20246;-73
2021/03/17 01:40:08;;;;;;;15.95;11.00;;;;;;;;;;5074888;28;20719;-74
2021/03/17 01:42:34;;;;;;;16.48;10.57;;;;;;;;;;5072606;28;20223;-74
2021/03/17 01:45:00;;;;;;;14.10;11.10;;;;;;;;;;5074670;28;20177;-74
2021/03/17 01:47:26;;;;;;;16.93;11.07;;;;;;;;;;5073732;28;20176;-73
2021/03/17 01:49:52;;;;;;;15.48;11.18;;;;;;;;;;5073694;28;20422;-72
2021/03/17 01:52:18;;;;;;;14.67;11.40;;;;;;;;;;5078614;28;20196;-74
2021/03/17 01:54:44;;;;;;;17.40;10.80;;;;;;;;;;5073397;28;20434;-74
2021/03/17 01:57:11;;;;;;;15.50;11.07;;;;;;;;;;5072466;28;20489;-73
2021/03/17 01:59:37;;;;;;;14.07;11.02;;;;;;;;;;5074698;28;20414;-74
2021/03/17 02:02:04;;;;;;;17.73;12.23;;;;;;;;;;5072939;28;20699;-73
2021/03/17 02:04:30;;;;;;;17.80;11.38;;;;;;;;;;5073137;28;20427;-74
2021/03/17 02:06:56;;;;;;;18.08;12.32;;;;;;;;;;5074370;28;20573;-74
2021/03/17 02:09:22;;;;;;;16.05;12.65;;;;;;;;;;5073369;28;20296;-74
2021/03/17 02:11:54;;;;;;;14.97;11.60;;;;;;;;;;5072882;28;20205;-74
2021/03/17 02:14:38;;;;;;;17.55;12.73;;;;;;;;;;5073504;28;20442;-73
2021/03/17 02:17:12;;;;;;;14.75;10.65;;;;;;;;;;5073482;28;20244;-74
2021/03/17 02:19:55;;;;;;;14.00;10.75;;;;;;;;;;5073066;28;20322;-74
2021/03/17 02:22:27;;;;;;;14.25;11.52;;;;;;;;;;5069945;28;20211;-74
2021/03/17 02:25:05;;;;;;;14.55;9.65;;;;;;;;;;5078105;28;20188;-74
2021/03/17 02:27:54;;;;;;;15.65;11.07;;;;;;;;;;5071609;28;20237;-74
2021/03/17 02:30:41;;;;;;;16.02;9.50;;;;;;;;;;5063542;28;20675;-75
2021/03/17 02:33:19;;;;;;;13.00;9.25;;;;;;;;;;5071951;28;20235;-74
2021/03/17 02:35:47;;;;;;;12.63;10.30;;;;;;;;;;5066262;28;20196;-73
2021/03/17 02:38:15;;;;;;;14.50;9.70;;;;;;;;;;5072599;28;20199;-73
2021/03/17 02:40:41;;;;;;;14.00;9.77;;;;;;;;;;5065521;28;20239;-74
2021/03/17 02:43:12;;;;;;;12.27;10.20;;;;;;;;;;5072799;28;20697;-74
2021/03/17 02:45:40;;;;;;;13.80;10.50;;;;;;;;;;5073518;28;20189;-74
2021/03/17 02:48:08;;;;;;;16.13;10.80;;;;;;;;;;5072135;28;20181;-74
2021/03/17 02:50:35;;;;;;;24.13;12.98;;;;;;;;;;5072663;28;20181;-74
2021/03/17 02:53:01;;;;;;;18.73;14.50;;;;;;;;;;5071043;28;20556;-74
2021/03/17 02:55:31;;;;;;;20.00;14.45;;;;;;;;;;5072632;28;20579;-73
2021/03/17 02:57:57;;;;;;;18.05;14.07;;;;;;;;;;5069191;28;20188;-74
2021/03/17 03:00:24;;;;;;;17.10;14.32;;;;;;;;;;5072575;28;20184;-74
2021/03/17 03:02:52;;;;;;;19.95;14.57;;;;;;;;;;5072044;28;20200;-74
2021/03/17 03:05:19;;;;;;;21.40;13.57;;;;;;;;;;5073223;28;20227;-73
2021/03/17 03:07:47;;;;;;;19.58;12.10;;;;;;;;;;5072457;28;20189;-74
2021/03/17 03:10:13;;;;;;;16.63;11.27;;;;;;;;;;5073158;28;20264;-73
2021/03/17 03:12:41;;;;;;;16.30;12.63;;;;;;;;;;5072144;28;20215;-74
2021/03/17 03:15:09;;;;;;;15.30;11.40;;;;;;;;;;5072838;28;20193;-73
2021/03/17 03:17:36;;;;;;;18.55;13.82;;;;;;;;;;5052257;28;20341;-74
2021/03/17 03:20:05;;;;;;;18.17;13.30;;;;;;;;;;5073009;28;20680;-73
2021/03/17 03:22:32;;;;;;;15.02;11.23;;;;;;;;;;5079423;28;20247;-74
2021/03/17 03:24:59;;;;;;;21.85;14.05;;;;;;;;;;5071434;28;20177;-74
2021/03/17 03:27:25;;;;;;;18.05;12.38;;;;;;;;;;5071540;28;20181;-74
2021/03/17 03:29:51;;;;;;;19.27;14.00;;;;;;;;;;5072497;28;20531;-73
2021/03/17 03:32:17;;;;;;;19.55;12.55;;;;;;;;;;5071577;28;20184;-73
2021/03/17 03:34:43;;;;;;;16.50;12.17;;;;;;;;;;5072821;28;20234;-74
2021/03/17 03:37:09;;;;;;;15.00;11.13;;;;;;;;;;5071768;28;20987;-74
2021/03/17 03:39:35;;;;;;;12.68;10.18;;;;;;;;;;5072199;28;20909;-73
2021/03/17 03:42:01;;;;;;;17.33;10.77;;;;;;;;;;5071099;28;20253;-73
2021/03/17 03:44:27;;;;;;;13.75;11.25;;;;;;;;;;5071457;28;20187;-73
2021/03/17 03:46:54;;;;;;;13.02;9.27;;;;;;;;;;5077094;28;20212;-73
2021/03/17 03:49:20;;;;;;;17.52;9.35;;;;;;;;;;5071117;28;20660;-74
2021/03/17 03:51:56;;;;;;;10.20;9.20;;;;;;;;;;5071858;28;20204;-74
2021/03/17 03:54:25;;;;;;;10.20;8.57;;;;;;;;;;5071018;28;20442;-73
2021/03/17 03:56:54;;;;;;;9.60;7.78;;;;;;;;;;5070554;28;20259;-74
2021/03/17 03:59:22;;;;;;;7.72;6.82;;;;;;;;;;5071917;28;20660;-74
2021/03/17 04:01:51;;;;;;;7.32;6.32;;;;;;;;;;5071591;28;20204;-73
2021/03/17 04:04:17;;;;;;;7.57;6.20;;;;;;;;;;5071155;28;20593;-74
2021/03/17 04:06:54;;;;;;;8.85;6.03;;;;;;;;;;5071991;28;20199;-74
2021/03/17 04:09:26;;;;;;;11.35;6.25;;;;;;;;;;5071587;28;20180;-73
2021/03/17 04:11:53;;;;;;;8.80;6.75;;;;;;;;;;5070830;28;20195;-73
2021/03/17 04:14:20;;;;;;;11.30;7.22;;;;;;;;;;5072682;28;20188;-74
2021/03/17 04:16:46;;;;;;;7.80;6.13;;;;;;;;;;5073271;28;20655;-74
2021/03/17 04:19:13;;;;;;;7.88;6.30;;;;;;;;;;5071130;28;20189;-74
2021/03/17 04:21:41;;;;;;;6.15;5.55;;;;;;;;;;5071218;28;20679;-74
2021/03/17 04:24:08;;;;;;;8.85;6.72;;;;;;;;;;5070162;28;20568;-74
2021/03/17 04:26:34;;;;;;;7.50;6.50;;;;;;;;;;5070618;28;20208;-73
2021/03/17 04:29:01;;;;;;;8.23;6.15;;;;;;;;;;5071434;28;20552;-74
2021/03/17 04:31:28;;;;;;;7.40;5.90;;;;;;;;;;5071127;28;20208;-73
2021/03/17 04:33:55;;;;;;;7.60;6.20;;;;;;;;;;5070955;28;20199;-74
2021/03/17 04:36:22;;;;;;;6.90;6.20;;;;;;;;;;5071686;28;20549;-74
2021/03/17 04:38:48;;;;;;;6.78;5.70;;;;;;;;;;5069289;28;20184;-74
2021/03/17 04:41:15;;;;;;;7.80;7.07;;;;;;;;;;5070404;28;20208;-74
2021/03/17 04:43:42;;;;;;;7.78;7.00;;;;;;;;;;5071194;28;20204;-74
2021/03/17 04:46:10;;;;;;;7.88;6.93;;;;;;;;;;5078477;28;20331;-74
2021/03/17 04:48:37;;;;;;;6.18;5.57;;;;;;;;;;5068556;28;20235;-74
2021/03/17 04:51:04;;;;;;;7.05;5.80;;;;;;;;;;5054058;28;20192;-74
2021/03/17 04:53:30;;;;;;;5.93;5.43;;;;;;;;;;5071334;28;20263;-74
2021/03/17 04:55:56;;;;;;;7.78;6.35;;;;;;;;;;5068579;28;20277;-74
2021/03/17 04:58:24;;;;;;;5.90;5.30;;;;;;;;;;5071513;28;20208;-74
2021/03/17 05:00:50;;;;;;;6.15;5.55;;;;;;;;;;5071028;28;20177;-74
2021/03/17 05:03:17;;;;;;;6.38;5.70;;;;;;;;;;5071278;28;20184;-74
2021/03/17 05:05:44;;;;;;;5.30;4.80;;;;;;;;;;5070988;28;20223;-73
2021/03/17 05:08:10;;;;;;;5.15;4.53;;;;;;;;;;5058819;28;20671;-74
2021/03/17 05:10:37;;;;;;;5.78;4.53;;;;;;;;;;5070437;28;20184;-74
2021/03/17 05:13:06;;;;;;;6.75;4.78;;;;;;;;;;5068864;28;20565;-74
2021/03/17 05:15:32;;;;;;;6.70;5.40;;;;;;;;;;5071148;28;20282;-74
2021/03/17 05:17:59;;;;;;;8.68;5.80;;;;;;;;;;5075471;28;20204;-73
2021/03/17 05:20:25;;;;;;;5.53;5.00;;;;;;;;;;5070630;28;20185;-73
2021/03/17 05:22:52;;;;;;;5.07;4.55;;;;;;;;;;5068655;28;20723;-73
2021/03/17 05:25:19;;;;;;;5.55;4.95;;;;;;;;;;5071471;28;20288;-72
2021/03/17 05:27:56;;;;;;;7.57;6.80;;;;;;;;;;5071059;28;20610;-73
2021/03/17 05:30:24;;;;;;;6.75;6.15;;;;;;;;;;5071496;28;20184;-74
2021/03/17 05:32:50;;;;;;;7.90;5.45;;;;;;;;;;5070487;28;20200;-75
2021/03/17 05:35:16;;;;;;;7.13;6.50;;;;;;;;;;5071243;28;20188;-73
2021/03/17 05:37:42;;;;;;;5.57;5.07;;;;;;;;;;5070824;28;20269;-74
2021/03/17 05:40:10;;;;;;;5.95;5.35;;;;;;;;;;5070867;28;20318;-73
2021/03/17 05:42:37;;;;;;;6.60;5.90;;;;;;;;;;5052448;28;20223;-72
2021/03/17 05:45:04;;;;;;;5.57;5.07;;;;;;;;;;5071562;28;20176;-74
2021/03/17 05:47:30;;;;;;;6.47;5.82;;;;;;;;;;5074261;28;20173;-73
2021/03/17 05:49:57;;;;;;;6.13;5.53;;;;;;;;;;5053346;28;20177;-72
2021/03/17 05:52:23;;;;;;;6.97;5.72;;;;;;;;;;5057211;28;20187;-72
2021/03/17 05:54:49;;;;;;;6.72;6.10;;;;;;;;;;5074790;28;20177;-72
2021/03/17 05:57:15;;;;;;;7.40;6.70;;;;;;;;;;5056164;28;20266;-73
2021/03/17 05:59:41;;;;;;;7.73;6.77;;;;;;;;;;5074298;28;20177;-73
2021/03/17 06:02:08;;;;;;;6.20;5.60;;;;;;;;;;5073922;28;20831;-73
2021/03/17 06:04:35;;;;;;;7.32;6.35;;;;;;;;;;5073008;28;20177;-73
2021/03/17 06:07:01;;;;;;;7.93;7.18;;;;;;;;;;5074341;28;20193;-73
2021/03/17 06:09:28;;;;;;;6.45;5.85;;;;;;;;;;5074471;28;20180;-73
2021/03/17 06:11:55;;;;;;;7.88;7.07;;;;;;;;;;5073487;28;20205;-73
2021/03/17 06:14:22;;;;;;;7.13;6.43;;;;;;;;;;5074751;28;20253;-73
2021/03/17 06:17:03;;;;;;;7.28;6.50;;;;;;;;;;5074055;28;20209;-73
2021/03/17 06:19:32;;;;;;;7.00;6.30;;;;;;;;;;5076414;28;20184;-73
2021/03/17 06:21:59;;;;;;;7.60;6.80;;;;;;;;;;5085569;28;20200;-72
2021/03/17 06:24:26;;;;;;;7.50;6.55;;;;;;;;;;5087218;28;20180;-72
2021/03/17 06:26:52;;;;;;;8.00;7.03;;;;;;;;;;5072321;28;20250;-72
2021/03/17 06:29:18;;;;;;;9.20;8.20;;;;;;;;;;5074106;28;20257;-72
2021/03/17 06:31:47;;;;;;;9.07;7.85;;;;;;;;;;5073706;28;20660;-72
2021/03/17 06:34:13;;;;;;;9.48;8.27;;;;;;;;;;5073855;28;20789;-72
2021/03/17 06:36:51;;;;;;;10.45;9.32;;;;;;;;;;5067275;28;20287;-72
2021/03/17 06:39:19;;;;;;;12.45;10.25;;;;;;;;;;5071223;28;20233;-72
2021/03/17 06:41:52;;;;;;;10.18;8.82;;;;;;;;;;5073200;28;20472;-72
2021/03/17 06:44:25;;;;;;;9.55;8.13;;;;;;;;;;5055842;28;20184;-73
2021/03/17 06:47:11;;;;;;;9.32;8.43;;;;;;;;;;5071003;28;20747;-72
2021/03/17 06:49:38;;;;;;;11.52;9.02;;;;;;;;;;5073035;28;20674;-72
2021/03/17 06:52:22;;;;;;;11.48;8.80;;;;;;;;;;5084935;28;20188;-72
2021/03/17 06:55:07;;;;;;;9.93;8.82;;;;;;;;;;5068064;28;20672;-72
2021/03/17 06:57:33;;;;;;;11.60;9.73;;;;;;;;;;5052644;28;20181;-72
2021/03/17 07:00:18;;;;;;;9.15;8.25;;;;;;;;;;5053730;28;20170;-73
2021/03/17 07:03:02;;;;;;;10.82;8.93;;;;;;;;;;5067600;28;20205;-72
2021/03/17 07:05:38;;;;;;;9.43;8.52;;;;;;;;;;5072141;28;20702;-72
2021/03/17 07:08:05;;;;;;;9.57;7.65;;;;;;;;;;5072343;28;20235;-72
2021/03/17 07:10:34;;;;;;;8.85;6.57;;;;;;;;;;5073397;28;20272;-72
2021/03/17 07:13:01;;;;;;;9.93;8.85;;;;;;;;;;5072445;28;20169;-72
2021/03/17 07:15:27;;;;;;;6.88;6.18;;;;;;;;;;5071961;28;20243;-72
2021/03/17 07:17:54;;;;;;;8.35;6.97;;;;;;;;;;5073282;28;20663;-72
2021/03/17 07:20:36;;;;;;;7.75;6.90;;;;;;;;;;5073922;28;20180;-73
2021/03/17 07:23:21;;;;;;;6.63;5.57;;;;;;;;;;5082407;28;20213;-72
2021/03/17 07:26:07;;;;;;;7.38;6.07;;;;;;;;;;5073007;28;20204;-72
2021/03/17 07:28:49;;;;;;;8.40;7.28;;;;;;;;;;5073065;28;20208;-72
2021/03/17 07:31:16;;;;;;;7.53;5.82;;;;;;;;;;5072713;28;20181;-72
2021/03/17 07:33:42;;;;;;;8.40;7.30;;;;;;;;;;5072408;28;20663;-72
2021/03/17 07:36:09;;;;;;;7.93;6.90;;;;;;;;;;5071418;28;20840;-72
2021/03/17 07:38:35;;;;;;;6.38;5.60;;;;;;;;;;5071728;28;20188;-72
2021/03/17 07:41:01;;;;;;;8.45;7.57;;;;;;;;;;5072513;28;20179;-72
2021/03/17 07:43:27;;;;;;;6.50;5.77;;;;;;;;;;5063578;28;20588;-72
2021/03/17 07:45:54;;;;;;;8.80;6.25;;;;;;;;;;5052399;28;20428;-72
2021/03/17 07:48:20;;;;;;;8.60;6.90;;;;;;;;;;5034476;28;20173;-72
2021/03/17 07:50:47;;;;;;;8.65;7.85;;;;;;;;;;5076888;28;20184;-72
2021/03/17 07:53:23;;;;;;;7.30;6.60;;;;;;;;;;5085161;28;20180;-72
2021/03/17 07:55:50;;;;;;;9.30;7.72;;;;;;;;;;5092513;28;20200;-72
2021/03/17 07:58:16;;;;;;;9.93;6.90;;;;;;;;;;5092609;28;20207;-73
2021/03/17 08:00:43;;;;;;;7.50;6.57;;;;;;;;;;5092417;28;20187;-72
2021/03/17 08:03:09;;;;;;;10.73;8.15;;;;;;;;;;5091990;28;20281;-72
2021/03/17 08:05:36;;;;;;;10.13;8.35;;;;;;;;;;5073186;28;20287;-72
2021/03/17 08:08:02;;;;;;;10.10;8.27;;;;;;;;;;5069780;28;20215;-72
2021/03/17 08:10:28;;;;;;;12.13;10.93;;;;;;;;;;5071401;28;20185;-72
2021/03/17 08:12:54;;;;;;;9.90;8.90;;;;;;;;;;5071863;28;20180;-72
2021/03/17 08:15:21;;;;;;;12.63;11.13;;;;;;;;;;5071753;28;20446;-72
2021/03/17 08:17:48;;;;;;;10.73;9.63;;;;;;;;;;5072231;28;20246;-72
2021/03/17 08:20:27;;;;;;;13.00;9.95;;;;;;;;;;5080035;28;20184;-72
2021/03/17 08:22:53;;;;;;;13.35;11.35;;;;;;;;;;5079377;28;20624;-72
2021/03/17 08:25:44;;;;;;;16.25;12.73;;;;;;;;;;5091914;28;20200;-72
2021/03/17 08:28:22;;;;;;;15.35;11.15;;;;;;;;;;5092201;28;20960;-72
2021/03/17 08:30:49;;;;;;;12.98;11.13;;;;;;;;;;5092188;28;20187;-72
2021/03/17 08:33:34;;;;;;;15.57;8.75;;;;;;;;;;5091925;28;20259;-73
2021/03/17 08:36:01;;;;;;;11.85;10.57;;;;;;;;;;5083989;28;20196;-73
2021/03/17 08:38:46;;;;;;;14.88;11.30;;;;;;;;;;5070009;28;20200;-72
2021/03/17 08:41:12;;;;;;;11.38;10.02;;;;;;;;;;5071764;28;20181;-73
2021/03/17 08:43:40;;;;;;;15.52;10.98;;;;;;;;;;5071587;28;20208;-72
2021/03/17 08:46:10;;;;;;;12.32;9.48;;;;;;;;;;5071662;28;20199;-73
2021/03/17 08:48:54;;;;;;;11.15;9.88;;;;;;;;;;5071665;28;20671;-72
2021/03/17 08:51:40;;;;;;;9.93;8.93;;;;;;;;;;5072182;28;20195;-73
2021/03/17 08:54:26;;;;;;;11.18;10.05;;;;;;;;;;5072324;28;20212;-73
2021/03/17 08:56:52;;;;;;;14.80;9.75;;;;;;;;;;5066561;28;20219;-73
2021/03/17 08:59:18;;;;;;;9.90;7.63;;;;;;;;;;5071671;28;20168;-73
2021/03/17 09:01:44;;;;;;;9.77;8.00;;;;;;;;;;5071386;28;20474;-73
2021/03/17 09:04:10;;;;;;;7.80;7.10;;;;;;;;;;5071513;28;20571;-73
2021/03/17 09:06:36;;;;;;;9.82;8.00;;;;;;;;;;5070630;28;20447;-73
2021/03/17 09:09:04;;;;;;;9.13;8.23;;;;;;;;;;5071424;28;20226;-73
2021/03/17 09:11:30;;;;;;;7.10;6.40;;;;;;;;;;5071176;28;20165;-73
2021/03/17 09:13:57;;;;;;;6.67;5.13;;;;;;;;;;5071486;28;20183;-72
2021/03/17 09:16:24;;;;;;;6.07;5.50;;;;;;;;;;5071270;28;20581;-73
2021/03/17 09:19:02;;;;;;;9.38;5.35;;;;;;;;;;5071328;28;20181;-73
2021/03/17 09:21:28;;;;;;;6.45;5.32;;;;;;;;;;5077789;28;20203;-73
2021/03/17 09:23:54;;;;;;;3.90;3.60;;;;;;;;;;5075289;28;20177;-73
2021/03/17 09:26:26;;;;;;;5.53;4.38;;;;;;;;;;5075158;28;20610;-73
2021/03/17 09:28:52;;;;;;;4.70;4.30;;;;;;;;;;5056254;28;20211;-73
2021/03/17 09:31:18;;;;;;;5.57;5.07;;;;;;;;;;5075157;28;20172;-72
2021/03/17 09:33:44;;;;;;;4.20;3.90;;;;;;;;;;5074812;28;20890;-73
2021/03/17 09:36:11;;;;;;;4.07;3.78;;;;;;;;;;5075550;28;20242;-73
2021/03/17 09:38:47;;;;;;;5.22;4.05;;;;;;;;;;5075563;28;20238;-72
2021/03/17 09:41:17;;;;;;;4.78;3.92;;;;;;;;;;5074969;28;20641;-73
2021/03/17 09:43:47;;;;;;;4.97;3.85;;;;;;;;;;5074632;28;20240;-74
2021/03/17 09:46:23;;;;;;;6.35;3.65;;;;;;;;;;5074808;28;20197;-72
2021/03/17 09:48:51;;;;;;;6.07;4.40;;;;;;;;;;5075038;28;20246;-72
2021/03/17 09:51:18;;;;;;;4.22;3.30;;;;;;;;;;5081529;28;20173;-72
2021/03/17 09:53:44;;;;;;;3.05;2.83;;;;;;;;;;5074614;28;20177;-72
2021/03/17 09:56:11;;;;;;;3.70;2.28;;;;;;;;;;5074599;28;20747;-72
2021/03/17 09:58:37;;;;;;;4.13;1.92;;;;;;;;;;5070533;28;20195;-72
2021/03/17 10:01:09;;;;;;;2.90;2.30;;;;;;;;;;5065410;28;20173;-72
2021/03/17 10:03:35;;;;;;;1.95;1.75;;;;;;;;;;5054199;28;20641;-72
2021/03/17 10:06:01;;;;;;;2.75;2.55;;;;;;;;;;5071885;28;20556;-73
2021/03/17 10:08:27;;;;;;;3.80;3.00;;;;;;;;;;5074342;28;20177;-73
2021/03/17 10:10:54;;;;;;;4.40;4.00;;;;;;;;;;5073302;28;20193;-73
2021/03/17 10:13:20;;;;;;;7.23;3.80;;;;;;;;;;5072601;28;20674;-73
2021/03/17 10:15:51;;;;;;;3.67;3.30;;;;;;;;;;5074133;28;20439;-73
2021/03/17 10:18:17;;;;;;;3.85;3.00;;;;;;;;;;5054114;28;20836;-73
2021/03/17 10:20:43;;;;;;;6.05;3.30;;;;;;;;;;5079007;28;20185;-73
2021/03/17 10:23:09;;;;;;;6.30;3.00;;;;;;;;;;5075059;28;20227;-74
2021/03/17 10:25:35;;;;;;;6.90;3.80;;;;;;;;;;5074914;28;20446;-73
2021/03/17 10:28:05;;;;;;;4.78;4.13;;;;;;;;;;5072196;28;20533;-73
2021/03/17 10:30:31;;;;;;;12.85;4.72;;;;;;;;;;5073387;28;20195;-73
2021/03/17 10:33:01;;;;;;;9.20;5.03;;;;;;;;;;5054906;28;20668;-72
2021/03/17 10:35:27;;;;;;;4.30;3.80;;;;;;;;;;5044023;28;20462;-73
2021/03/17 10:37:53;;;;;;;4.45;3.78;;;;;;;;;;5074024;28;20657;-73
2021/03/17 10:40:20;;;;;;;5.90;3.53;;;;;;;;;;5073656;28;20318;-73
2021/03/17 10:42:48;;;;;;;6.30;4.55;;;;;;;;;;5073634;28;20224;-73
2021/03/17 10:45:16;;;;;;;4.95;3.67;;;;;;;;;;5073846;28;20169;-73
2021/03/17 10:47:43;;;;;;;7.32;4.03;;;;;;;;;;5073510;28;20259;-73
2021/03/17 10:50:10;;;;;;;4.53;3.53;;;;;;;;;;5073571;28;20169;-73
2021/03/17 10:52:37;;;;;;;5.35;3.67;;;;;;;;;;5076548;28;20180;-73
2021/03/17 10:55:17;;;;;;;3.70;2.55;;;;;;;;;;5082868;28;20190;-73
2021/03/17 10:57:43;;;;;;;2.55;2.10;;;;;;;;;;5072851;28;20188;-73
2021/03/17 11:00:12;;;;;;;4.20;2.78;;;;;;;;;;5073607;28;20281;-73
2021/03/17 11:02:38;;;;;;;2.30;2.10;;;;;;;;;;5072709;28;20215;-73
2021/03/17 11:05:04;;;;;;;6.05;3.88;;;;;;;;;;5071662;28;20687;-73
2021/03/17 11:07:48;;;;;;;6.73;2.60;;;;;;;;;;5073478;28;20177;-73
2021/03/17 11:10:33;;;;;;;8.18;3.30;;;;;;;;;;5073473;28;20403;-73
2021/03/17 11:12:59;;;;;;;4.13;3.75;;;;;;;;;;5072962;28;20172;-73
2021/03/17 11:15:27;;;;;;;5.30;2.35;;;;;;;;;;5073095;28;20205;-73
2021/03/17 11:17:53;;;;;;;4.38;2.20;;;;;;;;;;5072379;28;20679;-73
2021/03/17 11:20:20;;;;;;;2.00;1.17;;;;;;;;;;5073345;28;20181;-73
2021/03/17 11:22:46;;;;;;;8.25;1.45;;;;;;;;;;5076963;28;20728;-72
2021/03/17 11:25:12;;;;;;;2.42;1.40;;;;;;;;;;5084717;28;20685;-73
2021/03/17 11:27:39;;;;;;;3.85;1.65;;;;;;;;;;5085583;28;20192;-73
2021/03/17 11:30:06;;;;;;;2.58;1.00;;;;;;;;;;5080684;28;20237;-73
2021/03/17 11:32:32;;;;;;;1.55;1.27;;;;;;;;;;5080076;28;20189;-73
2021/03/17 11:34:58;;;;;;;10.05;1.52;;;;;;;;;;5072528;28;20180;-73
2021/03/17 11:37:24;;;;;;;3.20;1.60;;;;;;;;;;5072488;28;20223;-73
2021/03/17 11:39:50;;;;;;;3.20;1.23;;;;;;;;;;5072798;28;20488;-73
2021/03/17 11:42:16;;;;;;;3.00;1.30;;;;;;;;;;5072469;28;20977;-73
2021/03/17 11:44:43;;;;;;;1.40;1.08;;;;;;;;;;5072251;28;20429;-73
2021/03/17 11:47:09;;;;;;;1.70;1.08;;;;;;;;;;5072738;28;20197;-73
2021/03/17 11:49:35;;;;;;;2.88;1.10;;;;;;;;;;5072683;28;20173;-73
2021/03/17 11:52:01;;;;;;;3.30;1.57;;;;;;;;;;5071897;28;20303;-72
2021/03/17 11:54:27;;;;;;;2.00;1.10;;;;;;;;;;5072312;28;20424;-73
2021/03/17 11:56:53;;;;;;;3.10;2.20;;;;;;;;;;5072069;28;20443;-74
2021/03/17 11:59:19;;;;;;;3.85;2.00;;;;;;;;;;5083911;28;20187;-73
2021/03/17 12:01:45;;;;;;;7.47;2.70;;;;;;;;;;5071421;28;20212;-73
2021/03/17 12:04:11;;;;;;;3.13;1.73;;;;;;;;;;5072215;28;20509;-73
2021/03/17 12:06:37;;;;;;;1.80;1.70;;;;;;;;;;5071845;28;20423;-73
2021/03/17 12:09:03;;;;;;;4.20;2.00;;;;;;;;;;5072159;28;20173;-73
2021/03/17 12:11:30;;;;;;;1.65;1.55;;;;;;;;;;5071643;28;20981;-73
2021/03/17 12:13:56;;;;;;;7.53;1.55;;;;;;;;;;5071865;28;20740;-73
2021/03/17 12:16:22;;;;;;;3.13;1.45;;;;;;;;;;5071535;28;20224;-73
2021/03/17 12:18:49;;;;;;;4.60;1.50;;;;;;;;;;5062606;28;20605;-73
2021/03/17 12:21:15;;;;;;;1.80;1.67;;;;;;;;;;5051566;28;20184;-73
2021/03/17 12:23:41;;;;;;;1.80;1.50;;;;;;;;;;5051742;28;20181;-73
2021/03/17 12:26:07;;;;;;;4.38;2.17;;;;;;;;;;5051985;28;20239;-73
2021/03/17 12:28:34;;;;;;;1.95;1.85;;;;;;;;;;5072992;28;20192;-73
2021/03/17 12:31:00;;;;;;;2.13;1.92;;;;;;;;;;5068586;28;20651;-73
2021/03/17 12:33:26;;;;;;;3.65;3.22;;;;;;;;;;5071528;28;20177;-73
2021/03/17 12:35:52;;;;;;;3.53;3.00;;;;;;;;;;5061658;28;20564;-73
2021/03/17 12:38:17;;;;;;;3.67;3.15;;;;;;;;;;5051920;28;20398;-73
2021/03/17 12:40:43;;;;;;;2.80;2.60;;;;;;;;;;5062700;28;20196;-72
2021/03/17 12:43:09;;;;;;;4.60;2.00;;;;;;;;;;5071432;28;20462;-72
2021/03/17 12:45:35;;;;;;;2.40;2.20;;;;;;;;;;5071545;28;20427;-72
2021/03/17 12:48:01;;;;;;;6.03;3.13;;;;;;;;;;5053575;28;20457;-73
2021/03/17 12:50:28;;;;;;;5.03;2.60;;;;;;;;;;5071299;28;20480;-73
2021/03/17 12:52:54;;;;;;;4.50;2.00;;;;;;;;;;5071594;28;20415;-72
2021/03/17 12:55:20;;;;;;;6.25;2.60;;;;;;;;;;5055297;28;20329;-72
2021/03/17 12:57:46;;;;;;;1.85;1.75;;;;;;;;;;5058963;28;20667;-72
2021/03/17 13:00:14;;;;;;;1.80;1.58;;;;;;;;;;5078309;28;20188;-72
2021/03/17 13:02:40;;;;;;;2.55;1.38;;;;;;;;;;5075199;28;20236;-72
2021/03/17 13:05:07;;;;;;;1.83;1.63;;;;;;;;;;5075481;28;20188;-72
2021/03/17 13:07:33;;;;;;;2.72;1.85;;;;;;;;;;5075503;28;20448;-72
2021/03/17 13:09:59;;;;;;;2.58;1.40;;;;;;;;;;5074988;28;20239;-72
2021/03/17 13:12:25;;;;;;;2.60;1.73;;;;;;;;;;5075266;28;20668;-72
2021/03/17 13:14:51;;;;;;;2.13;1.40;;;;;;;;;;5075229;28;20506;-72
2021/03/17 13:17:19;;;;;;;3.13;1.63;;;;;;;;;;5075390;28;20325;-72
2021/03/17 13:19:45;;;;;;;1.75;1.65;;;;;;;;;;5073014;28;20451;-72
2021/03/17 13:22:11;;;;;;;5.07;2.37;;;;;;;;;;5074677;28;20296;-72
2021/03/17 13:24:37;;;;;;;7.88;3.78;;;;;;;;;;5075149;28;20403;-72
2021/03/17 13:27:03;;;;;;;8.30;3.30;;;;;;;;;;5075083;28;20566;-72
2021/03/17 13:29:29;;;;;;;2.95;2.75;;;;;;;;;;5085522;28;20456;-72
2021/03/17 13:31:55;;;;;;;3.17;2.88;;;;;;;;;;5062247;28;20731;-73
2021/03/17 13:34:21;;;;;;;4.18;2.60;;;;;;;;;;5075023;28;20177;-73
2021/03/17 13:36:47;;;;;;;3.53;2.17;;;;;;;;;;5074834;28;20687;-73
2021/03/17 13:39:13;;;;;;;4.30;2.27;;;;;;;;;;5074011;28;20195;-73
2021/03/17 13:41:39;;;;;;;3.58;2.35;;;;;;;;;;5074584;28;20502;-73
2021/03/17 13:44:05;;;;;;;3.20;2.27;;;;;;;;;;5074719;28;20205;-73
2021/03/17 13:46:31;;;;;;;3.60;1.90;;;;;;;;;;5074075;28;20425;-73
2021/03/17 13:48:57;;;;;;;5.65;2.15;;;;;;;;;;5074796;28;20408;-73
2021/03/17 13:51:23;;;;;;;5.47;1.90;;;;;;;;;;5071635;28;20200;-73
2021/03/17 13:53:49;;;;;;;2.75;1.85;;;;;;;;;;5065079;28;20434;-73
2021/03/17 13:56:16;;;;;;;2.30;1.58;;;;;;;;;;5065323;28;20202;-73
2021/03/17 13:58:42;;;;;;;1.80;1.50;;;;;;;;;;5072176;28;20181;-73
2021/03/17 14:01:08;;;;;;;5.03;2.00;;;;;;;;;;5073720;28;20266;-73
2021/03/17 14:03:34;;;;;;;2.57;2.13;;;;;;;;;;5074153;28;20268;-74
2021/03/17 14:06:00;;;;;;;3.88;2.03;;;;;;;;;;5072497;28;20497;-74
2021/03/17 14:08:26;;;;;;;5.25;1.80;;;;;;;;;;5074227;28;20180;-74
2021/03/17 14:10:52;;;;;;;2.00;1.33;;;;;;;;;;5072596;28;20272;-74
2021/03/17 14:13:18;;;;;;;1.80;1.42;;;;;;;;;;5074323;28;20415;-74
2021/03/17 14:15:44;;;;;;;1.92;1.23;;;;;;;;;;5073762;28;20220;-74
2021/03/17 14:18:11;;;;;;;2.63;1.40;;;;;;;;;;5074512;28;20188;-74
2021/03/17 14:20:37;;;;;;;5.50;2.20;;;;;;;;;;5074809;28;20200;-74
2021/03/17 14:23:03;;;;;;;5.15;1.73;;;;;;;;;;5071634;28;20290;-74
2021/03/17 14:25:30;;;;;;;2.22;1.60;;;;;;;;;;5073540;28;20201;-73
2021/03/17 14:27:58;;;;;;;3.10;1.50;;;;;;;;;;5058824;28;20258;-73
2021/03/17 14:30:24;;;;;;;5.60;1.85;;;;;;;;;;5074130;28;20214;-73
2021/03/17 14:32:50;;;;;;;3.65;1.65;;;;;;;;;;5071243;28;20177;-74
2021/03/17 14:35:16;;;;;;;1.83;1.60;;;;;;;;;;5073222;28;20211;-74
2021/03/17 14:37:42;;;;;;;5.13;1.55;;;;;;;;;;5073609;28;20182;-74
2021/03/17 14:40:09;;;;;;;4.13;1.40;;;;;;;;;;5073369;28;20185;-74